Time;durP1;ratioP1;P1;durP2;ratioP2;P2;SDS_P1;SDS_P2;PMS_P1;PMS_P2;Temp;Humidity;BMP_temperature;BMP_pressure;BME280_temperature;BME280_humidity;BME280_pressure;Samples;Min_cycle;Max_cycle;Signal;HPM_P1;HPM_P2
2022/09/13 00:01:34;;;;;;;4.00;3.10;;;;;;;;;;2348582;57;21051;-75
2022/09/13 00:04:01;;;;;;;4.03;3.60;;;;;;;;;;2348573;57;21054;-75
2022/09/13 00:06:28;;;;;;;3.50;3.12;;;;;;;;;;2348232;57;21051;-75
2022/09/13 00:08:55;;;;;;;6.18;3.90;;;;;;;;;;2348473;57;21079;-75
2022/09/13 00:11:23;;;;;;;3.92;3.08;;;;;;;;;;2596161;53;21508;-75
2022/09/13 00:13:50;;;;;;;4.85;3.50;;;;;;;;;;2348722;57;21039;-75
2022/09/13 00:16:18;;;;;;;4.07;3.17;;;;;;;;;;2348120;57;21031;-75
2022/09/13 00:18:45;;;;;;;3.95;3.40;;;;;;;;;;2596348;53;21544;-75
2022/09/13 00:21:13;;;;;;;4.50;3.12;;;;;;;;;;2348538;57;21043;-75
2022/09/13 00:23:40;;;;;;;3.58;3.28;;;;;;;;;;2348590;57;21034;-75
2022/09/13 00:26:08;;;;;;;4.03;3.40;;;;;;;;;;2348438;57;21046;-75
2022/09/13 00:28:35;;;;;;;4.12;3.37;;;;;;;;;;2348472;57;21605;-75
2022/09/13 00:31:03;;;;;;;5.53;3.53;;;;;;;;;;2596271;53;21507;-75
2022/09/13 00:33:30;;;;;;;4.15;3.50;;;;;;;;;;2348468;57;21897;-75
2022/09/13 00:35:57;;;;;;;4.80;2.92;;;;;;;;;;2348204;57;21094;-75
2022/09/13 00:38:24;;;;;;;5.57;3.85;;;;;;;;;;2348630;57;21050;-75
2022/09/13 00:40:51;;;;;;;4.95;3.37;;;;;;;;;;2348559;57;21126;-75
2022/09/13 00:43:19;;;;;;;4.62;3.40;;;;;;;;;;2348516;57;21051;-75
2022/09/13 00:45:47;;;;;;;3.87;3.22;;;;;;;;;;2347845;57;21091;-75
2022/09/13 00:48:17;;;;;;;4.72;3.30;;;;;;;;;;2348315;57;21046;-75
2022/09/13 00:50:46;;;;;;;7.85;3.72;;;;;;;;;;2348492;57;21067;-75
2022/09/13 00:53:15;;;;;;;5.43;3.62;;;;;;;;;;2348501;57;21106;-75
2022/09/13 00:55:44;;;;;;;7.50;3.97;;;;;;;;;;2596400;53;21047;-75
2022/09/13 00:58:13;;;;;;;7.25;4.60;;;;;;;;;;2349188;56;21047;-76
2022/09/13 01:00:40;;;;;;;6.50;4.18;;;;;;;;;;2349543;57;21062;-75
2022/09/13 01:03:10;;;;;;;4.50;3.65;;;;;;;;;;2349233;57;21051;-75
2022/09/13 01:05:40;;;;;;;6.72;4.20;;;;;;;;;;2348990;57;21046;-75
2022/09/13 01:08:11;;;;;;;5.45;4.53;;;;;;;;;;2349142;57;21122;-75
2022/09/13 01:10:40;;;;;;;4.32;3.80;;;;;;;;;;2349468;57;21111;-75
2022/09/13 01:13:13;;;;;;;5.00;4.40;;;;;;;;;;2349247;57;21580;-75
2022/09/13 01:15:40;;;;;;;8.60;4.68;;;;;;;;;;2349078;57;21054;-75
2022/09/13 01:18:08;;;;;;;5.82;4.30;;;;;;;;;;2349274;57;21098;-75
2022/09/13 01:20:40;;;;;;;5.32;4.75;;;;;;;;;;2349427;57;21129;-75
2022/09/13 01:23:17;;;;;;;5.22;4.72;;;;;;;;;;2349393;57;21134;-75
2022/09/13 01:26:10;;;;;;;6.22;4.50;;;;;;;;;;2401482;53;72392;-84
2022/09/13 01:28:58;;;;;;;5.32;4.55;;;;;;;;;;2599266;53;21081;-84
2022/09/13 01:31:30;;;;;;;7.00;4.90;;;;;;;;;;2599142;53;21583;-84
2022/09/13 01:34:03;;;;;;;5.45;4.65;;;;;;;;;;2351218;57;21054;-84
2022/09/13 01:36:39;;;;;;;6.67;4.37;;;;;;;;;;2598927;53;21026;-84
2022/09/13 01:39:08;;;;;;;5.47;4.72;;;;;;;;;;2598983;53;21023;-84
2022/09/13 01:41:47;;;;;;;6.25;4.37;;;;;;;;;;2351167;57;21130;-84
2022/09/13 01:44:20;;;;;;;6.45;4.97;;;;;;;;;;2350979;57;21435;-84
2022/09/13 01:46:48;;;;;;;5.85;4.95;;;;;;;;;;2598113;52;21555;-84
2022/09/13 01:49:19;;;;;;;5.82;5.03;;;;;;;;;;2351092;57;21109;-84
2022/09/13 01:51:49;;;;;;;6.85;4.95;;;;;;;;;;2599136;53;21041;-84
2022/09/13 01:54:17;;;;;;;7.90;5.15;;;;;;;;;;2599185;53;21110;-85
2022/09/13 01:56:49;;;;;;;5.68;4.47;;;;;;;;;;2598667;52;21034;-84
2022/09/13 01:59:19;;;;;;;7.72;4.75;;;;;;;;;;2351201;57;21041;-84
2022/09/13 02:01:49;;;;;;;5.65;5.05;;;;;;;;;;2598915;53;21102;-84
2022/09/13 02:04:18;;;;;;;6.15;4.75;;;;;;;;;;2351313;57;21109;-84
2022/09/13 02:06:46;;;;;;;7.30;5.35;;;;;;;;;;2598891;52;21673;-84
2022/09/13 02:09:15;;;;;;;9.27;5.07;;;;;;;;;;2351324;57;21097;-84
2022/09/13 02:11:44;;;;;;;7.05;5.30;;;;;;;;;;2599304;53;21038;-84
2022/09/13 02:14:13;;;;;;;7.75;5.57;;;;;;;;;;2599055;53;21125;-84
2022/09/13 02:16:42;;;;;;;6.22;4.75;;;;;;;;;;2598745;52;21122;-85
2022/09/13 02:19:12;;;;;;;6.90;5.07;;;;;;;;;;2351304;57;21575;-84
2022/09/13 02:21:43;;;;;;;5.15;4.65;;;;;;;;;;2599291;53;21090;-84
2022/09/13 02:24:12;;;;;;;5.43;4.93;;;;;;;;;;2599237;53;21066;-84
2022/09/13 02:26:40;;;;;;;5.62;4.82;;;;;;;;;;2598767;52;21034;-84
2022/09/13 02:29:08;;;;;;;5.87;4.82;;;;;;;;;;2351158;57;21109;-84
2022/09/13 02:31:38;;;;;;;7.20;5.72;;;;;;;;;;2351021;57;21046;-85
2022/09/13 02:34:07;;;;;;;6.32;5.68;;;;;;;;;;2598729;53;21104;-84
2022/09/13 02:36:36;;;;;;;8.93;5.35;;;;;;;;;;2350798;57;21050;-84
2022/09/13 02:39:05;;;;;;;11.07;5.87;;;;;;;;;;2598627;53;21046;-85
2022/09/13 02:41:35;;;;;;;7.10;5.70;;;;;;;;;;2598450;53;21042;-85
2022/09/13 02:44:06;;;;;;;6.50;5.60;;;;;;;;;;2598747;53;21058;-84
2022/09/13 02:46:47;;;;;;;9.20;5.70;;;;;;;;;;2350643;57;21117;-84
2022/09/13 02:49:16;;;;;;;8.77;5.87;;;;;;;;;;2598841;53;21090;-84
2022/09/13 02:51:45;;;;;;;8.00;5.97;;;;;;;;;;2351040;57;21062;-85
2022/09/13 02:54:19;;;;;;;6.80;5.80;;;;;;;;;;2350998;57;21121;-84
2022/09/13 02:56:51;;;;;;;6.78;5.43;;;;;;;;;;2598279;52;21113;-84
2022/09/13 02:59:19;;;;;;;6.97;5.75;;;;;;;;;;2351035;57;21086;-85
2022/09/13 03:01:48;;;;;;;8.80;6.18;;;;;;;;;;2351037;57;21531;-85
2022/09/13 03:04:15;;;;;;;7.07;5.65;;;;;;;;;;2598710;53;21158;-84
2022/09/13 03:06:42;;;;;;;8.82;6.57;;;;;;;;;;2598254;52;21160;-84
2022/09/13 03:09:09;;;;;;;8.18;5.50;;;;;;;;;;2351150;57;21077;-84
2022/09/13 03:11:41;;;;;;;9.18;6.47;;;;;;;;;;2598801;53;21027;-84
2022/09/13 03:14:15;;;;;;;7.53;6.47;;;;;;;;;;2599002;53;21046;-84
2022/09/13 03:16:53;;;;;;;7.37;5.68;;;;;;;;;;2350754;57;21133;-85
2022/09/13 03:19:28;;;;;;;8.15;5.32;;;;;;;;;;2598904;53;21033;-84
2022/09/13 03:22:03;;;;;;;7.32;5.37;;;;;;;;;;2351025;57;21043;-84
2022/09/13 03:24:36;;;;;;;9.90;6.18;;;;;;;;;;2351304;57;21118;-84
2022/09/13 03:27:03;;;;;;;;;;;;;;;;;;2354218;57;21530;-85
2022/09/13 03:29:32;;;;;;;7.20;5.25;;;;;;;;;;2351207;57;20127;-84
2022/09/13 03:32:05;;;;;;;8.68;5.82;;;;;;;;;;2598824;53;21042;-85
2022/09/13 03:34:36;;;;;;;8.95;6.60;;;;;;;;;;2598786;53;21172;-84
2022/09/13 03:37:06;;;;;;;8.10;6.12;;;;;;;;;;2598348;52;21034;-84
2022/09/13 03:39:36;;;;;;;8.52;5.57;;;;;;;;;;2598870;53;21057;-84
2022/09/13 03:42:07;;;;;;;8.65;6.12;;;;;;;;;;2598723;53;21106;-84
2022/09/13 03:44:35;;;;;;;7.78;4.95;;;;;;;;;;2351193;57;21089;-84
2022/09/13 03:47:03;;;;;;;8.18;6.62;;;;;;;;;;2598103;52;21034;-84
2022/09/13 03:49:31;;;;;;;9.65;6.78;;;;;;;;;;2598883;53;21042;-84
2022/09/13 03:51:58;;;;;;;10.18;6.35;;;;;;;;;;2351148;57;21518;-84
2022/09/13 03:54:27;;;;;;;10.25;6.68;;;;;;;;;;2351301;57;21038;-84
2022/09/13 03:57:06;;;;;;;9.30;6.87;;;;;;;;;;2598546;52;21145;-84
2022/09/13 03:59:35;;;;;;;8.70;6.37;;;;;;;;;;2598868;53;21038;-85
2022/09/13 04:02:03;;;;;;;12.37;7.57;;;;;;;;;;2351151;57;21125;-84
2022/09/13 04:04:30;;;;;;;9.95;6.57;;;;;;;;;;2598830;53;21086;-84
2022/09/13 04:06:58;;;;;;;9.27;6.87;;;;;;;;;;2350742;57;21085;-84
2022/09/13 04:09:24;;;;;;;11.65;7.62;;;;;;;;;;2599000;53;21058;-84
2022/09/13 04:11:51;;;;;;;10.20;6.70;;;;;;;;;;2351181;57;21034;-84
2022/09/13 04:14:19;;;;;;;11.00;7.40;;;;;;;;;;2351153;57;21058;-84
2022/09/13 04:16:46;;;;;;;9.98;7.20;;;;;;;;;;2598386;52;21856;-84
2022/09/13 04:19:13;;;;;;;10.57;7.12;;;;;;;;;;2351160;57;21571;-84
2022/09/13 04:21:40;;;;;;;10.20;7.25;;;;;;;;;;2351246;57;21583;-84
2022/09/13 04:24:07;;;;;;;11.55;8.70;;;;;;;;;;2598629;53;21603;-85
2022/09/13 04:26:34;;;;;;;10.40;7.62;;;;;;;;;;2597175;52;21035;-85
2022/09/13 04:29:01;;;;;;;10.70;7.95;;;;;;;;;;2351195;57;21507;-85
2022/09/13 04:31:28;;;;;;;11.65;8.07;;;;;;;;;;2598785;53;21050;-84
2022/09/13 04:33:55;;;;;;;11.30;8.02;;;;;;;;;;2598672;53;21066;-84
2022/09/13 04:36:22;;;;;;;13.23;7.90;;;;;;;;;;2598164;52;21026;-85
2022/09/13 04:38:49;;;;;;;15.05;10.40;;;;;;;;;;2351124;57;21097;-86
2022/09/13 04:41:16;;;;;;;14.70;10.45;;;;;;;;;;2598720;53;21599;-84
2022/09/13 04:43:43;;;;;;;15.70;10.93;;;;;;;;;;2599112;53;21053;-84
2022/09/13 04:46:10;;;;;;;17.87;11.27;;;;;;;;;;2350831;57;21402;-84
2022/09/13 04:48:37;;;;;;;14.95;10.65;;;;;;;;;;2351215;57;21045;-85
2022/09/13 04:51:04;;;;;;;19.08;11.68;;;;;;;;;;2598997;53;21527;-83
2022/09/13 04:53:31;;;;;;;13.98;9.77;;;;;;;;;;2350916;57;21054;-83
2022/09/13 04:56:00;;;;;;;14.10;9.77;;;;;;;;;;2350718;57;21110;-84
2022/09/13 04:58:27;;;;;;;15.63;10.68;;;;;;;;;;2599108;53;21105;-84
2022/09/13 05:00:55;;;;;;;18.25;11.60;;;;;;;;;;2351314;57;21101;-85
2022/09/13 05:03:22;;;;;;;19.77;11.77;;;;;;;;;;2598921;53;21054;-85
2022/09/13 05:05:49;;;;;;;19.92;12.65;;;;;;;;;;2351001;57;21084;-83
2022/09/13 05:08:16;;;;;;;23.30;13.13;;;;;;;;;;2598836;53;21114;-85
2022/09/13 05:10:43;;;;;;;19.98;13.38;;;;;;;;;;2598811;53;21069;-84
2022/09/13 05:13:10;;;;;;;23.02;15.25;;;;;;;;;;2598968;53;21102;-84
2022/09/13 05:15:37;;;;;;;22.87;13.73;;;;;;;;;;2350868;57;21058;-85
2022/09/13 05:18:04;;;;;;;25.30;15.48;;;;;;;;;;2351311;57;21086;-84
2022/09/13 05:20:31;;;;;;;20.55;14.48;;;;;;;;;;2599155;53;21046;-85
2022/09/13 05:22:58;;;;;;;27.67;16.65;;;;;;;;;;2351298;57;21153;-84
2022/09/13 05:25:25;;;;;;;27.92;15.80;;;;;;;;;;2350831;57;21161;-84
2022/09/13 05:27:52;;;;;;;25.27;16.02;;;;;;;;;;2598724;53;21078;-85
2022/09/13 05:30:19;;;;;;;37.38;20.88;;;;;;;;;;2598767;53;21046;-85
2022/09/13 05:32:46;;;;;;;28.50;16.25;;;;;;;;;;2598986;53;21031;-86
2022/09/13 05:35:13;;;;;;;28.60;17.12;;;;;;;;;;2598639;52;21038;-84
2022/09/13 05:37:40;;;;;;;32.35;19.42;;;;;;;;;;2351132;57;21042;-85
2022/09/13 05:40:08;;;;;;;28.48;17.55;;;;;;;;;;2351033;57;21503;-85
2022/09/13 05:42:35;;;;;;;28.87;17.55;;;;;;;;;;2598913;53;21134;-85
2022/09/13 05:45:02;;;;;;;31.50;19.12;;;;;;;;;;2599032;53;21180;-85
2022/09/13 05:47:29;;;;;;;27.10;16.87;;;;;;;;;;2598620;52;21097;-84
2022/09/13 05:49:56;;;;;;;27.00;17.15;;;;;;;;;;2351057;57;21042;-84
2022/09/13 05:52:23;;;;;;;30.98;18.02;;;;;;;;;;2598720;53;21047;-84
2022/09/13 05:54:50;;;;;;;28.80;17.17;;;;;;;;;;2598719;53;21042;-84
2022/09/13 05:57:17;;;;;;;24.70;16.60;;;;;;;;;;2598340;53;21117;-84
2022/09/13 05:59:45;;;;;;;30.77;18.35;;;;;;;;;;2351189;57;21046;-85
2022/09/13 06:02:12;;;;;;;24.35;16.80;;;;;;;;;;2351195;57;21109;-85
2022/09/13 06:04:39;;;;;;;27.52;17.23;;;;;;;;;;2599106;53;21125;-85
2022/09/13 06:07:05;;;;;;;28.95;17.87;;;;;;;;;;2351049;57;21578;-84
2022/09/13 06:09:32;;;;;;;28.38;17.02;;;;;;;;;;2351329;57;21034;-85
2022/09/13 06:11:59;;;;;;;25.42;15.88;;;;;;;;;;2599108;53;21526;-84
2022/09/13 06:14:26;;;;;;;28.45;16.87;;;;;;;;;;2598953;53;21483;-85
2022/09/13 06:16:53;;;;;;;22.75;15.13;;;;;;;;;;2350720;57;21046;-84
2022/09/13 06:19:21;;;;;;;25.12;16.90;;;;;;;;;;2598850;53;21046;-85
2022/09/13 06:21:48;;;;;;;31.50;18.33;;;;;;;;;;2598779;53;21038;-85
2022/09/13 06:24:15;;;;;;;28.85;17.90;;;;;;;;;;2598905;53;21082;-84
2022/09/13 06:26:42;;;;;;;39.55;22.17;;;;;;;;;;2350899;57;21050;-84
2022/09/13 06:29:11;;;;;;;31.67;18.77;;;;;;;;;;2351171;57;21106;-85
2022/09/13 06:31:42;;;;;;;27.73;17.73;;;;;;;;;;2351392;57;21046;-85
2022/09/13 06:34:11;;;;;;;28.42;17.75;;;;;;;;;;2351339;57;21046;-84
2022/09/13 06:36:38;;;;;;;25.50;16.48;;;;;;;;;;2350885;57;21189;-85
2022/09/13 06:39:05;;;;;;;24.52;15.30;;;;;;;;;;2599471;53;21035;-84
2022/09/13 06:41:32;;;;;;;24.40;16.10;;;;;;;;;;2351317;57;21118;-84
2022/09/13 06:44:00;;;;;;;24.20;14.82;;;;;;;;;;2600807;53;21086;-85
2022/09/13 06:46:28;;;;;;;23.05;15.35;;;;;;;;;;2350770;57;21094;-84
2022/09/13 06:48:56;;;;;;;25.33;15.07;;;;;;;;;;2599117;53;21026;-85
2022/09/13 06:51:24;;;;;;;25.23;14.95;;;;;;;;;;2599117;53;21038;-84
2022/09/13 06:53:52;;;;;;;22.27;14.27;;;;;;;;;;2599048;53;21117;-85
2022/09/13 06:56:20;;;;;;;26.33;14.85;;;;;;;;;;2598364;52;21101;-85
2022/09/13 06:58:48;;;;;;;22.70;13.55;;;;;;;;;;2351192;57;21098;-84
2022/09/13 07:01:16;;;;;;;24.40;14.57;;;;;;;;;;2598735;53;21542;-84
2022/09/13 07:03:44;;;;;;;22.80;13.90;;;;;;;;;;2351341;57;21528;-84
2022/09/13 07:06:12;;;;;;;23.00;13.48;;;;;;;;;;2350904;57;21105;-84
2022/09/13 07:08:40;;;;;;;23.40;14.05;;;;;;;;;;2598618;53;21117;-83
2022/09/13 07:11:08;;;;;;;22.15;13.18;;;;;;;;;;2350281;57;21039;-84
2022/09/13 07:13:35;;;;;;;21.33;13.32;;;;;;;;;;2599335;53;21038;-84
2022/09/13 07:16:03;;;;;;;23.92;13.75;;;;;;;;;;2598822;53;21042;-84
2022/09/13 07:18:30;;;;;;;23.85;13.93;;;;;;;;;;2599321;53;21093;-84
2022/09/13 07:21:00;;;;;;;22.15;12.57;;;;;;;;;;2351454;57;21181;-84
2022/09/13 07:23:27;;;;;;;21.80;11.57;;;;;;;;;;2599358;53;21094;-84
2022/09/13 07:26:00;;;;;;;19.73;11.05;;;;;;;;;;2351022;57;21051;-84
2022/09/13 07:28:27;;;;;;;16.95;10.82;;;;;;;;;;2599518;53;21062;-84
2022/09/13 07:30:54;;;;;;;17.48;10.50;;;;;;;;;;2599407;53;21061;-84
2022/09/13 07:33:22;;;;;;;16.92;10.60;;;;;;;;;;2599348;53;21567;-84
2022/09/13 07:35:54;;;;;;;18.75;10.07;;;;;;;;;;2598952;52;21090;-84
2022/09/13 07:38:22;;;;;;;16.95;10.05;;;;;;;;;;2351303;57;21062;-84
2022/09/13 07:40:53;;;;;;;17.00;9.73;;;;;;;;;;2351648;57;21106;-84
2022/09/13 07:43:20;;;;;;;17.42;9.13;;;;;;;;;;2351588;57;21122;-83
2022/09/13 07:45:47;;;;;;;18.83;10.15;;;;;;;;;;2598945;52;21085;-84
2022/09/13 07:48:14;;;;;;;17.45;9.20;;;;;;;;;;2599258;53;21082;-84
2022/09/13 07:50:41;;;;;;;13.62;7.80;;;;;;;;;;2351517;57;21041;-84
2022/09/13 07:53:08;;;;;;;17.42;7.80;;;;;;;;;;2351343;57;21499;-84
2022/09/13 07:55:35;;;;;;;19.33;7.90;;;;;;;;;;2351146;57;21046;-84
2022/09/13 07:58:02;;;;;;;16.60;6.82;;;;;;;;;;2351278;57;21070;-84
2022/09/13 08:00:29;;;;;;;14.55;5.80;;;;;;;;;;2599465;53;21046;-84
2022/09/13 08:02:56;;;;;;;20.60;7.28;;;;;;;;;;2351696;57;21038;-84
2022/09/13 08:05:23;;;;;;;9.93;5.70;;;;;;;;;;2599228;52;21027;-84
2022/09/13 08:07:50;;;;;;;10.00;5.53;;;;;;;;;;2599297;53;21030;-84
2022/09/13 08:10:17;;;;;;;12.02;5.57;;;;;;;;;;2599442;53;21101;-84
2022/09/13 08:12:44;;;;;;;11.63;5.60;;;;;;;;;;2351402;57;21113;-84
2022/09/13 08:15:11;;;;;;;9.77;5.07;;;;;;;;;;2599453;52;21118;-84
2022/09/13 08:17:38;;;;;;;10.00;4.57;;;;;;;;;;2351780;57;21468;-83
2022/09/13 08:20:05;;;;;;;14.60;4.72;;;;;;;;;;2351827;57;21054;-84
2022/09/13 08:22:32;;;;;;;13.25;3.90;;;;;;;;;;2599195;53;21061;-84
2022/09/13 08:24:59;;;;;;;9.15;3.40;;;;;;;;;;2599684;53;21567;-84
2022/09/13 08:27:28;;;;;;;5.32;3.33;;;;;;;;;;2599158;52;21102;-84
2022/09/13 08:29:55;;;;;;;5.95;3.17;;;;;;;;;;2599538;53;21118;-83
2022/09/13 08:32:21;;;;;;;9.52;3.40;;;;;;;;;;2351525;57;21601;-83
2022/09/13 08:34:49;;;;;;;5.78;2.80;;;;;;;;;;2352019;57;21098;-84
2022/09/13 08:37:16;;;;;;;11.30;3.72;;;;;;;;;;2599182;52;21567;-84
2022/09/13 08:39:43;;;;;;;7.53;2.92;;;;;;;;;;2351738;57;21098;-84
2022/09/13 08:42:29;;;;;;;8.45;3.45;;;;;;;;;;2599419;53;21045;-84
2022/09/13 08:44:59;;;;;;;8.52;3.58;;;;;;;;;;2351513;57;21030;-83
2022/09/13 08:47:31;;;;;;;8.18;3.78;;;;;;;;;;2351433;57;21034;-84
2022/09/13 08:50:01;;;;;;;8.55;3.22;;;;;;;;;;2351727;57;21042;-84
2022/09/13 08:52:30;;;;;;;7.25;2.53;;;;;;;;;;2351939;57;21053;-83
2022/09/13 08:54:57;;;;;;;5.47;2.45;;;;;;;;;;2352102;57;21034;-83
2022/09/13 08:57:26;;;;;;;10.63;2.75;;;;;;;;;;2351648;57;21054;-84
2022/09/13 09:00:01;;;;;;;7.47;2.78;;;;;;;;;;2599759;53;21077;-83
2022/09/13 09:02:38;;;;;;;6.82;2.20;;;;;;;;;;2599735;53;21038;-83
2022/09/13 09:05:11;;;;;;;8.30;2.55;;;;;;;;;;2352013;57;21050;-83
2022/09/13 09:07:40;;;;;;;8.30;2.40;;;;;;;;;;2599452;53;21038;-84
2022/09/13 09:10:12;;;;;;;5.93;2.37;;;;;;;;;;2352019;57;21050;-84
2022/09/13 09:12:42;;;;;;;9.87;2.23;;;;;;;;;;2600047;53;21030;-84
2022/09/13 09:15:14;;;;;;;6.47;1.12;;;;;;;;;;2351616;57;21126;-84
2022/09/13 09:17:46;;;;;;;8.88;2.08;;;;;;;;;;2352079;57;21050;-83
2022/09/13 09:20:22;;;;;;;6.90;1.15;;;;;;;;;;2352056;57;21042;-83
2022/09/13 09:22:50;;;;;;;4.87;1.20;;;;;;;;;;2599707;53;21026;-83
2022/09/13 09:25:18;;;;;;;4.10;1.02;;;;;;;;;;2351702;57;21101;-83
2022/09/13 09:27:45;;;;;;;3.15;0.90;;;;;;;;;;2351934;57;21101;-83
2022/09/13 09:30:13;;;;;;;4.37;1.05;;;;;;;;;;2599760;53;21087;-84
2022/09/13 09:32:53;;;;;;;4.05;0.90;;;;;;;;;;2351965;57;21534;-83
2022/09/13 09:35:27;;;;;;;3.30;1.05;;;;;;;;;;2351932;57;21102;-83
2022/09/13 09:38:02;;;;;;;5.80;1.15;;;;;;;;;;2600486;53;21030;-83
2022/09/13 09:40:30;;;;;;;7.30;1.30;;;;;;;;;;2352257;57;21090;-83
2022/09/13 09:42:57;;;;;;;10.68;1.48;;;;;;;;;;2599783;53;21110;-84
2022/09/13 09:45:26;;;;;;;5.68;0.98;;;;;;;;;;2351862;57;21081;-82
2022/09/13 09:47:54;;;;;;;4.37;0.95;;;;;;;;;;2599962;53;21062;-84
2022/09/13 09:50:22;;;;;;;4.05;0.90;;;;;;;;;;2351963;57;21114;-82
2022/09/13 09:52:55;;;;;;;5.60;1.20;;;;;;;;;;2352246;57;21113;-84
2022/09/13 09:55:25;;;;;;;3.93;1.00;;;;;;;;;;2351769;57;21042;-83
2022/09/13 09:57:54;;;;;;;6.53;1.37;;;;;;;;;;2352074;57;21046;-83
2022/09/13 10:00:22;;;;;;;10.70;2.00;;;;;;;;;;2598123;53;21121;-83
2022/09/13 10:02:51;;;;;;;5.18;1.45;;;;;;;;;;2600166;53;21102;-83
2022/09/13 10:05:19;;;;;;;11.38;1.33;;;;;;;;;;2351900;57;21054;-83
2022/09/13 10:07:52;;;;;;;7.93;1.35;;;;;;;;;;2600008;53;21050;-83
2022/09/13 10:10:21;;;;;;;5.90;1.17;;;;;;;;;;2600010;53;21050;-83
2022/09/13 10:12:50;;;;;;;5.32;1.55;;;;;;;;;;2599715;53;21053;-83
2022/09/13 10:15:19;;;;;;;3.17;1.05;;;;;;;;;;2599710;52;21162;-82
2022/09/13 10:18:01;;;;;;;4.30;0.77;;;;;;;;;;2352036;57;21036;-83
2022/09/13 10:20:30;;;;;;;5.25;1.25;;;;;;;;;;2600332;53;21086;-83
2022/09/13 10:23:10;;;;;;;6.05;1.55;;;;;;;;;;2351637;57;21562;-83
2022/09/13 10:25:38;;;;;;;3.58;0.82;;;;;;;;;;2351467;57;21507;-82
2022/09/13 10:28:08;;;;;;;5.82;1.12;;;;;;;;;;2599823;53;21102;-83
2022/09/13 10:30:37;;;;;;;4.07;1.20;;;;;;;;;;2599408;53;21125;-84
2022/09/13 10:33:05;;;;;;;4.90;1.27;;;;;;;;;;2599800;53;21114;-82
2022/09/13 10:35:33;;;;;;;6.37;1.15;;;;;;;;;;2599403;52;21045;-83
2022/09/13 10:38:00;;;;;;;6.15;1.15;;;;;;;;;;2599630;53;21097;-84
2022/09/13 10:40:29;;;;;;;8.18;1.10;;;;;;;;;;2351675;57;21106;-83
2022/09/13 10:42:57;;;;;;;10.23;2.40;;;;;;;;;;2599643;53;21038;-83
2022/09/13 10:45:26;;;;;;;7.95;1.58;;;;;;;;;;2599021;52;21117;-83
2022/09/13 10:47:54;;;;;;;3.75;0.82;;;;;;;;;;2599393;53;21043;-82
2022/09/13 10:50:22;;;;;;;5.32;1.20;;;;;;;;;;2599679;53;21195;-83
2022/09/13 10:52:50;;;;;;;5.72;1.00;;;;;;;;;;2599224;53;21098;-83
2022/09/13 10:55:25;;;;;;;3.65;1.20;;;;;;;;;;2351211;57;21102;-82
2022/09/13 10:57:52;;;;;;;3.83;1.05;;;;;;;;;;2599337;53;21567;-83
2022/09/13 11:00:21;;;;;;;7.53;1.60;;;;;;;;;;2598898;53;21109;-83
2022/09/13 11:03:07;;;;;;;4.22;1.12;;;;;;;;;;2351601;57;21051;-84
2022/09/13 11:05:38;;;;;;;7.60;1.30;;;;;;;;;;2598484;52;21542;-83
2022/09/13 11:08:16;;;;;;;6.68;1.40;;;;;;;;;;2351364;57;21594;-82
2022/09/13 11:10:47;;;;;;;7.53;1.98;;;;;;;;;;2351140;57;21018;-83
2022/09/13 11:13:19;;;;;;;4.32;1.23;;;;;;;;;;2351102;57;21046;-83
2022/09/13 11:15:52;;;;;;;7.45;2.62;;;;;;;;;;2350827;57;21110;-83
2022/09/13 11:18:42;;;;;;;4.55;1.17;;;;;;;;;;2599422;53;21043;-83
2022/09/13 11:21:15;;;;;;;4.90;1.30;;;;;;;;;;2351228;57;21041;-84
2022/09/13 11:23:47;;;;;;;6.57;1.10;;;;;;;;;;2599255;53;21097;-83
2022/09/13 11:26:26;;;;;;;6.10;1.27;;;;;;;;;;2350861;57;21038;-83
2022/09/13 11:28:58;;;;;;;8.57;1.02;;;;;;;;;;2351525;57;21531;-83
2022/09/13 11:31:31;;;;;;;5.10;1.10;;;;;;;;;;2599208;53;21030;-83
2022/09/13 11:34:07;;;;;;;5.10;1.12;;;;;;;;;;2599144;53;21072;-83
2022/09/13 11:36:46;;;;;;;5.03;1.20;;;;;;;;;;2598920;52;21050;-84
2022/09/13 11:39:17;;;;;;;4.97;1.00;;;;;;;;;;2351621;57;21058;-83
2022/09/13 11:41:48;;;;;;;3.85;1.10;;;;;;;;;;2599148;53;21038;-84
2022/09/13 11:44:23;;;;;;;5.47;1.40;;;;;;;;;;2351447;57;21058;-84
2022/09/13 11:46:54;;;;;;;4.28;0.88;;;;;;;;;;2598780;52;21082;-84
2022/09/13 11:49:37;;;;;;;3.35;1.05;;;;;;;;;;2599350;53;21093;-84
2022/09/13 11:52:09;;;;;;;4.70;1.05;;;;;;;;;;2351593;57;21109;-84
2022/09/13 11:54:43;;;;;;;5.12;1.10;;;;;;;;;;2599285;53;21038;-83
2022/09/13 11:57:11;;;;;;;4.25;0.95;;;;;;;;;;2598667;52;21543;-83
2022/09/13 11:59:40;;;;;;;4.65;1.25;;;;;;;;;;2599313;53;21042;-84
2022/09/13 12:02:14;;;;;;;6.47;1.23;;;;;;;;;;2599234;53;21050;-83
2022/09/13 12:04:40;;;;;;;;;;;;;;;;;;2355028;57;21078;-84
2022/09/13 12:07:10;;;;;;;5.07;0.95;;;;;;;;;;2598663;52;20132;-84
2022/09/13 12:09:40;;;;;;;4.40;1.17;;;;;;;;;;2351337;57;21539;-84
2022/09/13 12:12:10;;;;;;;6.62;1.60;;;;;;;;;;2351339;57;21097;-84
2022/09/13 12:14:41;;;;;;;10.85;1.62;;;;;;;;;;2351224;57;21519;-84
2022/09/13 12:17:12;;;;;;;6.32;1.30;;;;;;;;;;2350895;57;21094;-85
2022/09/13 12:19:42;;;;;;;6.03;1.35;;;;;;;;;;2599115;53;21047;-83
2022/09/13 12:22:11;;;;;;;5.07;1.10;;;;;;;;;;2351107;57;21046;-84
2022/09/13 12:24:41;;;;;;;5.53;1.37;;;;;;;;;;2351214;57;21030;-83
2022/09/13 12:27:12;;;;;;;6.22;1.33;;;;;;;;;;2351020;56;21042;-84
2022/09/13 12:29:44;;;;;;;8.75;1.40;;;;;;;;;;2599310;53;21050;-84
2022/09/13 12:32:11;;;;;;;3.25;1.33;;;;;;;;;;2599028;53;21118;-84
2022/09/13 12:34:42;;;;;;;9.07;1.23;;;;;;;;;;2598882;53;21078;-84
2022/09/13 12:37:18;;;;;;;3.12;1.10;;;;;;;;;;2350948;57;21050;-84
2022/09/13 12:39:55;;;;;;;3.78;1.48;;;;;;;;;;2351311;57;21038;-84
2022/09/13 12:42:41;;;;;;;3.95;1.48;;;;;;;;;;2599123;53;21048;-85
2022/09/13 12:45:15;;;;;;;7.68;1.08;;;;;;;;;;2598946;52;21105;-83
2022/09/13 12:48:00;;;;;;;6.85;1.30;;;;;;;;;;2350889;57;21054;-84
2022/09/13 12:50:47;;;;;;;4.03;1.17;;;;;;;;;;2350989;57;21503;-84
2022/09/13 12:53:22;;;;;;;4.72;1.40;;;;;;;;;;2350072;57;21030;-83
2022/09/13 12:55:56;;;;;;;7.97;1.00;;;;;;;;;;2598522;52;21110;-84
2022/09/13 12:58:49;;;;;;;6.03;1.10;;;;;;;;;;2599045;53;21042;-84
2022/09/13 13:01:19;;;;;;;3.75;0.70;;;;;;;;;;2595205;53;21038;-85
2022/09/13 13:03:49;;;;;;;5.25;1.20;;;;;;;;;;2598680;53;21621;-84
2022/09/13 13:06:21;;;;;;;3.20;0.80;;;;;;;;;;2598115;52;21042;-85
2022/09/13 13:08:50;;;;;;;5.28;0.93;;;;;;;;;;2598344;53;21102;-85
2022/09/13 13:11:20;;;;;;;5.60;1.17;;;;;;;;;;2598334;53;21126;-85
2022/09/13 13:13:53;;;;;;;8.82;0.98;;;;;;;;;;2598569;53;21043;-85
2022/09/13 13:16:22;;;;;;;5.05;1.62;;;;;;;;;;2598416;52;21031;-85
2022/09/13 13:18:50;;;;;;;8.18;1.52;;;;;;;;;;2598631;53;21492;-85
2022/09/13 13:21:37;;;;;;;4.93;1.12;;;;;;;;;;2598760;53;21042;-85
2022/09/13 13:24:22;;;;;;;3.45;0.62;;;;;;;;;;2598731;53;21098;-86
2022/09/13 13:26:52;;;;;;;4.80;0.88;;;;;;;;;;2319946;53;21086;-82
2022/09/13 13:29:22;;;;;;;6.25;0.90;;;;;;;;;;2299510;58;21110;-83
2022/09/13 13:32:07;;;;;;;7.85;1.25;;;;;;;;;;2535638;54;21054;-81
2022/09/13 13:34:41;;;;;;;5.00;1.30;;;;;;;;;;2299414;58;21042;-83
2022/09/13 13:37:26;;;;;;;5.35;1.12;;;;;;;;;;2535339;54;21511;-82
2022/09/13 13:40:11;;;;;;;6.10;1.05;;;;;;;;;;2299425;58;21583;-82
2022/09/13 13:42:38;;;;;;;5.65;1.35;;;;;;;;;;2299423;58;21058;-83
2022/09/13 13:45:17;;;;;;;4.03;1.05;;;;;;;;;;2299107;58;21095;-82
2022/09/13 13:48:06;;;;;;;3.90;1.05;;;;;;;;;;2299283;58;21082;-82
2022/09/13 13:50:33;;;;;;;3.90;1.20;;;;;;;;;;2299245;58;21039;-83
2022/09/13 13:53:18;;;;;;;1.85;0.80;;;;;;;;;;2299172;58;21050;-82
2022/09/13 13:55:47;;;;;;;3.47;0.90;;;;;;;;;;2298781;58;21058;-83
2022/09/13 13:58:30;;;;;;;4.97;1.10;;;;;;;;;;2299403;58;21168;-81
2022/09/13 14:00:59;;;;;;;5.93;1.00;;;;;;;;;;2299281;58;21050;-82
2022/09/13 14:03:30;;;;;;;5.30;1.10;;;;;;;;;;2298955;58;21039;-82
2022/09/13 14:06:02;;;;;;;7.35;1.55;;;;;;;;;;2298663;58;21042;-83
2022/09/13 14:08:36;;;;;;;7.00;1.75;;;;;;;;;;2535628;53;21046;-83
2022/09/13 14:11:09;;;;;;;5.62;1.20;;;;;;;;;;2299177;58;21054;-82
2022/09/13 14:13:42;;;;;;;7.68;1.02;;;;;;;;;;2535524;53;21090;-82
2022/09/13 14:16:13;;;;;;;9.43;1.27;;;;;;;;;;2298747;58;21062;-81
2022/09/13 14:19:01;;;;;;;7.25;1.27;;;;;;;;;;2535355;54;21117;-81
2022/09/13 14:21:29;;;;;;;9.90;1.42;;;;;;;;;;2298654;58;21166;-82
2022/09/13 14:24:09;;;;;;;4.72;1.40;;;;;;;;;;2298675;58;21114;-82
2022/09/13 14:26:36;;;;;;;6.40;1.00;;;;;;;;;;2534539;54;21113;-83
2022/09/13 14:29:06;;;;;;;3.62;1.12;;;;;;;;;;2298725;58;21058;-82
2022/09/13 14:31:33;;;;;;;7.40;1.65;;;;;;;;;;2298668;58;21050;-82
2022/09/13 14:34:00;;;;;;;10.88;1.67;;;;;;;;;;2298534;58;21046;-82
2022/09/13 14:36:27;;;;;;;5.57;1.85;;;;;;;;;;2298926;58;21062;-82
2022/09/13 14:38:57;;;;;;;6.90;1.23;;;;;;;;;;2300429;58;21649;-82
2022/09/13 14:41:30;;;;;;;5.12;1.00;;;;;;;;;;2300398;58;21046;-83
2022/09/13 14:43:56;;;;;;;;;;;;;;;;;;2304029;58;21078;-83
2022/09/13 14:46:25;;;;;;;6.60;1.73;;;;;;;;;;2299932;58;20065;-83
2022/09/13 14:48:54;;;;;;;8.93;1.75;;;;;;;;;;2536991;53;21046;-83
2022/09/13 14:51:24;;;;;;;3.83;0.93;;;;;;;;;;2536862;54;21527;-83
2022/09/13 14:53:52;;;;;;;7.80;1.35;;;;;;;;;;2300393;58;21042;-82
2022/09/13 14:56:22;;;;;;;8.15;1.20;;;;;;;;;;2536455;54;21030;-83